createdAt,value
2018-08-28T00:01:33.029Z,5.73
2018-08-28T00:04:07.386Z,5.67
2018-08-28T00:06:41.770Z,5.50
2018-08-28T00:09:16.174Z,6.20
2018-08-28T00:11:50.470Z,5.57
2018-08-28T00:14:24.815Z,5.60
2018-08-28T00:16:59.286Z,5.57
2018-08-28T00:19:33.530Z,5.10
2018-08-28T00:22:07.794Z,5.70
2018-08-28T00:24:42.053Z,4.97
2018-08-28T00:27:16.570Z,5.87
2018-08-28T00:29:50.713Z,5.10
2018-08-28T00:32:24.969Z,5.30
2018-08-28T00:34:59.210Z,5.50
2018-08-28T00:37:33.510Z,5.00
2018-08-28T00:40:07.915Z,5.03
2018-08-28T00:42:42.261Z,5.90
2018-08-28T00:45:16.559Z,5.80
2018-08-28T00:47:51.330Z,4.93
2018-08-28T00:50:25.612Z,5.40
2018-08-28T00:53:00.114Z,4.90
2018-08-28T00:55:34.398Z,4.80
2018-08-28T00:58:08.744Z,4.47
2018-08-28T01:00:43.011Z,5.03
2018-08-28T01:03:17.339Z,4.57
2018-08-28T01:05:51.568Z,5.00
2018-08-28T01:08:26.025Z,5.20
2018-08-28T01:11:00.382Z,4.97
2018-08-28T01:13:34.823Z,4.20
2018-08-28T01:16:09.034Z,4.40
2018-08-28T01:18:43.181Z,4.30
2018-08-28T01:21:17.486Z,4.10
2018-08-28T01:23:51.886Z,4.87
2018-08-28T01:26:26.203Z,3.97
2018-08-28T01:29:00.494Z,3.97
2018-08-28T01:31:34.769Z,3.73
2018-08-28T01:34:09.053Z,3.80
2018-08-28T01:36:43.387Z,4.60
2018-08-28T01:39:17.699Z,4.13
2018-08-28T01:41:51.991Z,3.47
2018-08-28T01:44:26.243Z,3.33
2018-08-28T01:47:00.498Z,4.20
2018-08-28T01:49:34.643Z,3.63
2018-08-28T01:52:09.026Z,3.50
2018-08-28T01:54:43.254Z,3.70
2018-08-28T01:57:17.669Z,4.07
2018-08-28T01:59:51.998Z,3.40
2018-08-28T02:02:26.326Z,3.30
2018-08-28T02:05:00.630Z,3.87
2018-08-28T02:07:35.024Z,3.50
2018-08-28T02:10:09.454Z,3.63
2018-08-28T02:12:43.607Z,3.70
2018-08-28T02:15:17.854Z,3.27
2018-08-28T02:17:52.186Z,2.80
2018-08-28T02:20:26.493Z,2.90
2018-08-28T02:23:00.679Z,3.10
2018-08-28T02:25:35.092Z,3.50
2018-08-28T02:28:09.267Z,3.03
2018-08-28T02:30:43.570Z,3.27
2018-08-28T02:33:18.042Z,3.00
2018-08-28T02:35:52.332Z,2.80
2018-08-28T02:38:26.694Z,3.40
2018-08-28T02:41:01.033Z,3.40
2018-08-28T02:43:35.310Z,2.80
2018-08-28T02:46:09.518Z,2.83
2018-08-28T02:48:43.851Z,3.27
2018-08-28T02:51:18.232Z,3.30
2018-08-28T02:53:52.438Z,2.90
2018-08-28T02:56:27.195Z,2.60
2018-08-28T02:59:01.504Z,3.40
2018-08-28T03:01:35.826Z,3.03
2018-08-28T03:04:10.147Z,2.70
2018-08-28T03:06:44.523Z,2.90
2018-08-28T03:09:18.833Z,2.60
2018-08-28T03:11:53.254Z,2.83
2018-08-28T03:14:28.355Z,2.73
2018-08-28T03:17:02.746Z,3.20
2018-08-28T03:19:37.175Z,3.20
2018-08-28T03:22:11.422Z,2.90
2018-08-28T03:24:45.689Z,3.10
2018-08-28T03:27:20.046Z,2.70
2018-08-28T03:29:54.308Z,3.07
2018-08-28T03:32:28.574Z,2.60
2018-08-28T03:35:02.746Z,3.17
2018-08-28T03:37:37.121Z,3.70
2018-08-28T03:40:11.486Z,3.50
2018-08-28T03:42:45.775Z,3.17
2018-08-28T03:45:19.961Z,3.10
2018-08-28T03:47:54.210Z,3.30
2018-08-28T03:50:28.527Z,3.13
2018-08-28T03:53:02.817Z,2.87
2018-08-28T03:55:37.098Z,3.17
2018-08-28T03:58:11.271Z,3.30
2018-08-28T04:00:45.723Z,2.97
2018-08-28T04:03:20.007Z,3.47
2018-08-28T04:05:54.654Z,3.30
2018-08-28T04:08:28.893Z,3.00
2018-08-28T04:11:03.350Z,3.43
2018-08-28T04:13:37.763Z,3.30
2018-08-28T04:16:11.921Z,3.37
2018-08-28T04:18:46.265Z,3.20
2018-08-28T04:21:20.554Z,3.80
2018-08-28T04:23:54.842Z,2.87
2018-08-28T04:26:29.102Z,2.93
2018-08-28T04:29:03.387Z,3.07
2018-08-28T04:31:37.716Z,3.20
2018-08-28T04:34:12.002Z,3.47
2018-08-28T04:36:46.425Z,2.77
2018-08-28T04:39:20.554Z,3.53
2018-08-28T04:41:55.009Z,3.43
2018-08-28T04:44:29.408Z,3.63
2018-08-28T04:47:03.799Z,3.20
2018-08-28T04:49:38.127Z,3.77
2018-08-28T04:52:12.451Z,4.30
2018-08-28T04:54:47.099Z,3.80
2018-08-28T04:57:21.341Z,4.07
2018-08-28T04:59:55.670Z,3.50
2018-08-28T05:02:33.964Z,3.83
2018-08-28T05:05:09.350Z,3.93
2018-08-28T05:07:43.671Z,4.23
2018-08-28T05:10:18.246Z,4.07
2018-08-28T05:12:52.686Z,4.20
2018-08-28T05:15:27.114Z,3.87
2018-08-28T05:18:01.379Z,3.80
2018-08-28T05:20:35.646Z,3.90
2018-08-28T05:23:09.987Z,4.60
2018-08-28T05:25:44.345Z,3.87
2018-08-28T05:28:18.646Z,4.13
2018-08-28T05:30:52.926Z,4.03
2018-08-28T05:33:27.419Z,4.43
2018-08-28T05:36:01.857Z,3.67
2018-08-28T05:38:36.187Z,3.80
2018-08-28T05:41:10.478Z,4.03
2018-08-28T05:43:44.707Z,3.90
2018-08-28T05:46:18.979Z,4.33
2018-08-28T05:48:53.359Z,3.70
2018-08-28T05:51:27.650Z,4.27
2018-08-28T05:54:01.978Z,4.13
2018-08-28T05:56:36.324Z,3.80
2018-08-28T05:59:10.694Z,4.20
2018-08-28T06:01:45.078Z,5.10
2018-08-28T06:04:19.326Z,4.33
2018-08-28T06:06:53.738Z,3.90
2018-08-28T06:09:27.874Z,4.60
2018-08-28T06:12:02.241Z,3.60
2018-08-28T06:14:36.461Z,4.00
2018-08-28T06:17:10.706Z,3.87
2018-08-28T06:19:45.028Z,3.87
2018-08-28T06:22:19.342Z,3.97
2018-08-28T06:24:53.473Z,4.27
2018-08-28T06:27:27.778Z,3.83
2018-08-28T06:30:01.988Z,4.20
2018-08-28T06:32:36.442Z,4.50
2018-08-28T06:35:10.630Z,4.70
2018-08-28T06:37:44.834Z,3.53
2018-08-28T06:40:19.194Z,4.23
2018-08-28T06:42:53.527Z,4.30
2018-08-28T06:45:27.777Z,3.80
2018-08-28T06:48:02.130Z,3.80
2018-08-28T06:50:36.302Z,3.97
2018-08-28T06:53:10.597Z,3.77
2018-08-28T06:55:45.006Z,3.87
2018-08-28T06:58:19.310Z,3.80
2018-08-28T07:00:53.490Z,3.73
2018-08-28T07:03:27.911Z,3.67
2018-08-28T07:06:02.401Z,3.47
2018-08-28T07:08:36.902Z,3.50
2018-08-28T07:11:11.286Z,3.90
2018-08-28T07:13:45.581Z,3.63
2018-08-28T07:16:19.925Z,3.07
2018-08-28T07:18:54.397Z,3.90
2018-08-28T07:21:28.542Z,3.53
2018-08-28T07:24:02.811Z,3.40
2018-08-28T07:26:37.102Z,3.50
2018-08-28T07:29:11.588Z,3.30
2018-08-28T07:31:45.948Z,3.17
2018-08-28T07:34:20.208Z,2.93
2018-08-28T07:36:54.389Z,3.33
2018-08-28T07:39:28.792Z,3.30
2018-08-28T07:42:03.110Z,3.30
2018-08-28T07:44:37.482Z,2.90
2018-08-28T07:47:11.734Z,3.27
2018-08-28T07:49:45.946Z,2.97
2018-08-28T07:52:20.299Z,3.00
2018-08-28T07:54:54.679Z,3.60
2018-08-28T07:57:28.959Z,3.03
2018-08-28T08:00:03.242Z,3.57
2018-08-28T08:02:37.650Z,3.33
2018-08-28T08:05:12.050Z,3.67
2018-08-28T08:07:46.283Z,3.40
2018-08-28T08:10:20.591Z,3.40
2018-08-28T08:12:54.960Z,3.90
2018-08-28T08:15:29.327Z,3.43
2018-08-28T08:18:03.754Z,3.70
2018-08-28T08:20:38.210Z,3.40
2018-08-28T08:23:12.459Z,3.77
2018-08-28T08:25:46.769Z,3.77
2018-08-28T08:28:21.081Z,3.87
2018-08-28T08:30:55.299Z,3.50
2018-08-28T08:33:29.496Z,3.67
2018-08-28T08:36:03.820Z,3.50
2018-08-28T08:38:38.101Z,3.60
2018-08-28T08:41:12.407Z,3.60
2018-08-28T08:43:46.734Z,3.60
2018-08-28T08:46:21.043Z,3.80
2018-08-28T08:48:55.366Z,3.53
2018-08-28T08:51:29.829Z,3.60
2018-08-28T08:54:04.153Z,3.90
2018-08-28T08:56:38.364Z,3.70
2018-08-28T08:59:12.794Z,3.73
2018-08-28T09:01:46.974Z,3.30
2018-08-28T09:04:21.282Z,4.10
2018-08-28T09:06:55.627Z,4.10
2018-08-28T09:09:30.059Z,4.30
2018-08-28T09:12:04.404Z,3.87
2018-08-28T09:14:38.721Z,3.40
2018-08-28T09:17:13.002Z,3.77
2018-08-28T09:19:47.378Z,4.20
2018-08-28T09:22:21.685Z,3.80
2018-08-28T09:24:55.832Z,3.50
2018-08-28T09:27:29.998Z,3.33
2018-08-28T09:30:04.537Z,3.87
2018-08-28T09:32:38.821Z,4.20
2018-08-28T09:35:13.181Z,4.30
2018-08-28T09:37:47.440Z,4.13
2018-08-28T09:40:21.850Z,3.93
2018-08-28T09:42:56.165Z,3.83
2018-08-28T09:45:30.435Z,4.87
2018-08-28T09:48:04.809Z,3.80
2018-08-28T09:50:38.985Z,4.20
2018-08-28T09:53:13.402Z,4.13
2018-08-28T09:55:47.734Z,4.00
2018-08-28T09:58:22.072Z,3.30
2018-08-28T10:01:01.672Z,2.63
2018-08-28T10:03:35.851Z,3.53
2018-08-28T10:06:10.150Z,3.43
2018-08-28T10:08:44.312Z,3.53
2018-08-28T10:11:18.582Z,3.43
2018-08-28T10:13:52.881Z,3.13
2018-08-28T10:16:27.138Z,3.67
2018-08-28T10:19:01.513Z,3.30
2018-08-28T10:21:36.176Z,3.50
2018-08-28T10:24:10.558Z,3.43
2018-08-28T10:26:44.866Z,3.40
2018-08-28T10:29:19.169Z,3.33
2018-08-28T10:31:53.426Z,3.23
2018-08-28T10:34:27.692Z,3.10
2018-08-28T10:37:02.034Z,3.30
2018-08-28T10:39:36.351Z,2.80
2018-08-28T10:42:10.614Z,3.37
2018-08-28T10:44:45.008Z,2.87
2018-08-28T10:47:19.362Z,3.37
2018-08-28T10:49:53.587Z,3.20
2018-08-28T10:52:27.983Z,3.80
2018-08-28T10:55:02.282Z,3.20
2018-08-28T10:57:36.571Z,3.60
2018-08-28T11:00:10.934Z,3.30
2018-08-28T11:02:45.098Z,3.13
2018-08-28T11:05:19.422Z,4.10
2018-08-28T11:07:53.687Z,3.03
2018-08-28T11:10:28.104Z,3.37
2018-08-28T11:13:02.342Z,3.30
2018-08-28T11:15:36.613Z,4.00
2018-08-28T11:18:10.903Z,3.70
2018-08-28T11:20:45.151Z,3.40
2018-08-28T11:23:19.410Z,4.27
2018-08-28T11:25:53.692Z,3.27
2018-08-28T11:28:28.006Z,4.30
2018-08-28T11:31:02.334Z,4.10
2018-08-28T11:33:36.592Z,4.07
2018-08-28T11:36:10.906Z,3.60
2018-08-28T11:38:45.352Z,2.90
2018-08-28T11:41:19.731Z,3.80
2018-08-28T11:43:53.994Z,3.90
2018-08-28T11:46:28.311Z,3.13
2018-08-28T11:49:02.578Z,2.80
2018-08-28T11:51:36.938Z,3.80
2018-08-28T11:54:11.195Z,3.77
2018-08-28T11:56:45.683Z,3.00
2018-08-28T11:59:19.816Z,3.13
2018-08-28T12:01:54.148Z,3.30
2018-08-28T12:04:28.426Z,3.20
2018-08-28T12:07:02.769Z,3.07
2018-08-28T12:09:36.987Z,2.80
2018-08-28T12:12:11.382Z,3.20
2018-08-28T12:14:45.778Z,3.00
2018-08-28T12:17:20.185Z,3.50
2018-08-28T12:19:54.576Z,3.30
2018-08-28T12:22:28.951Z,2.63
2018-08-28T12:25:03.246Z,3.00
2018-08-28T12:27:37.598Z,2.67
2018-08-28T12:30:12.081Z,5.50
2018-08-28T12:32:46.419Z,3.33
2018-08-28T12:35:20.767Z,3.20
2018-08-28T12:37:55.115Z,3.23
2018-08-28T12:40:29.434Z,2.60
2018-08-28T12:43:03.663Z,3.10
2018-08-28T12:45:38.085Z,3.50
2018-08-28T12:48:12.386Z,3.10
2018-08-28T12:50:46.669Z,2.90
2018-08-28T12:53:20.842Z,3.00
2018-08-28T12:55:55.133Z,3.23
2018-08-28T12:58:29.434Z,2.80
2018-08-28T13:01:03.710Z,3.13
2018-08-28T13:03:38.011Z,2.97
2018-08-28T13:06:12.385Z,3.37
2018-08-28T13:08:46.678Z,3.13
2018-08-28T13:11:21.071Z,2.93
2018-08-28T13:13:55.579Z,3.20
2018-08-28T13:16:29.738Z,3.57
2018-08-28T13:19:04.145Z,3.60
2018-08-28T13:21:38.434Z,4.60
2018-08-28T13:24:12.722Z,3.80
2018-08-28T13:26:47.094Z,3.20
2018-08-28T13:29:21.447Z,4.03
2018-08-28T13:31:55.754Z,2.87
2018-08-28T13:34:30.114Z,3.60
2018-08-28T13:37:04.486Z,3.07
2018-08-28T13:39:38.729Z,3.70
2018-08-28T13:42:13.191Z,3.73
2018-08-28T13:44:47.511Z,3.13
2018-08-28T13:47:21.830Z,3.27
2018-08-28T13:49:56.116Z,3.43
2018-08-28T13:52:30.447Z,3.60
2018-08-28T13:55:04.774Z,3.97
2018-08-28T13:57:39.172Z,3.90
2018-08-28T14:00:13.503Z,3.20
2018-08-28T14:02:47.850Z,3.67
2018-08-28T14:05:21.997Z,3.93
2018-08-28T14:07:56.254Z,3.53
2018-08-28T14:10:30.486Z,3.83
2018-08-28T14:13:04.943Z,4.93
2018-08-28T14:15:39.240Z,3.80
2018-08-28T14:18:13.633Z,3.80
2018-08-28T14:20:47.966Z,4.43
2018-08-28T14:23:22.211Z,4.20
2018-08-28T14:25:56.406Z,4.37
2018-08-28T14:28:30.758Z,4.53
2018-08-28T14:31:05.206Z,4.53
2018-08-28T14:33:39.330Z,4.40
2018-08-28T14:36:13.712Z,4.57
2018-08-28T14:38:47.930Z,4.50
2018-08-28T14:41:22.406Z,4.67
2018-08-28T14:43:56.679Z,4.70
2018-08-28T14:46:30.912Z,4.97
2018-08-28T14:49:05.422Z,4.63
2018-08-28T14:51:39.779Z,4.37
2018-08-28T14:54:13.990Z,4.40
2018-08-28T14:56:48.408Z,4.97
2018-08-28T14:59:22.579Z,4.77
2018-08-28T15:01:56.890Z,4.50
2018-08-28T15:04:31.017Z,4.47
2018-08-28T15:07:05.681Z,5.13
2018-08-28T15:09:39.954Z,4.80
2018-08-28T15:12:14.141Z,4.67
2018-08-28T15:14:48.379Z,4.73
2018-08-28T15:17:22.658Z,3.97
2018-08-28T15:19:56.939Z,4.80
2018-08-28T15:22:31.380Z,4.77
2018-08-28T15:25:06.134Z,4.80
2018-08-28T15:27:40.357Z,4.67
2018-08-28T15:30:14.550Z,4.90
2018-08-28T15:32:48.832Z,4.70
2018-08-28T15:35:23.006Z,4.20
2018-08-28T15:37:57.162Z,4.70
2018-08-28T15:40:31.490Z,4.47
2018-08-28T15:43:05.849Z,4.37
2018-08-28T15:45:40.014Z,4.00
2018-08-28T15:48:14.302Z,5.10
2018-08-28T15:50:48.683Z,3.80
2018-08-28T15:53:22.887Z,4.87
2018-08-28T15:55:57.195Z,4.57
2018-08-28T15:58:31.383Z,4.73
2018-08-28T16:01:05.911Z,5.00
2018-08-28T16:03:40.046Z,4.40
2018-08-28T16:06:14.568Z,4.50
2018-08-28T16:08:48.810Z,4.83
2018-08-28T16:11:23.201Z,5.00
2018-08-28T16:13:57.526Z,4.80
2018-08-28T16:16:31.770Z,4.83
2018-08-28T16:19:06.005Z,5.10
2018-08-28T16:21:46.414Z,4.80
2018-08-28T16:24:20.875Z,4.97
2018-08-28T16:26:55.561Z,5.07
2018-08-28T16:29:29.834Z,4.67
2018-08-28T16:32:04.114Z,4.73
2018-08-28T16:34:38.423Z,4.50
2018-08-28T16:37:12.709Z,4.27
2018-08-28T16:39:46.957Z,4.40
2018-08-28T16:42:21.320Z,4.40
2018-08-28T16:44:55.793Z,5.20
2018-08-28T16:47:30.052Z,4.80
2018-08-28T16:50:04.581Z,4.40
2018-08-28T16:52:38.754Z,4.60
2018-08-28T16:55:13.034Z,4.90
2018-08-28T16:57:47.416Z,4.87
2018-08-28T17:00:21.788Z,5.13
2018-08-28T17:02:56.186Z,4.83
2018-08-28T17:05:30.517Z,4.33
2018-08-28T17:08:04.723Z,5.27
2018-08-28T17:10:39.078Z,4.90
2018-08-28T17:13:13.250Z,5.60
2018-08-28T17:15:47.494Z,4.57
2018-08-28T17:18:21.746Z,5.10
2018-08-28T17:20:56.240Z,5.23
2018-08-28T17:23:30.562Z,5.07
2018-08-28T17:26:05.023Z,5.17
2018-08-28T17:28:39.258Z,5.00
2018-08-28T17:31:13.590Z,4.70
2018-08-28T17:33:47.970Z,5.03
2018-08-28T17:36:22.299Z,5.63
2018-08-28T17:38:56.534Z,4.97
2018-08-28T17:41:30.867Z,4.70
2018-08-28T17:44:05.146Z,4.93
2018-08-28T17:46:39.460Z,4.87
2018-08-28T17:49:13.717Z,4.67
2018-08-28T17:51:48.156Z,4.77
2018-08-28T17:54:22.422Z,4.90
2018-08-28T17:56:57.772Z,4.80
2018-08-28T17:59:31.954Z,4.50
2018-08-28T18:02:06.158Z,4.80
2018-08-28T18:04:40.324Z,5.20
2018-08-28T18:07:14.582Z,5.23
2018-08-28T18:09:48.886Z,4.77
2018-08-28T18:12:23.207Z,4.67
2018-08-28T18:14:57.590Z,4.47
2018-08-28T18:17:31.900Z,5.17
2018-08-28T18:20:06.178Z,5.03
2018-08-28T18:22:40.472Z,4.23
2018-08-28T18:25:14.767Z,4.50
2018-08-28T18:27:49.105Z,4.87
2018-08-28T18:30:23.411Z,4.37
2018-08-28T18:32:57.645Z,4.40
2018-08-28T18:35:31.950Z,4.67
2018-08-28T18:38:06.230Z,5.00
2018-08-28T18:40:40.466Z,4.67
2018-08-28T18:43:14.736Z,4.87
2018-08-28T18:45:49.091Z,4.40
2018-08-28T18:48:23.506Z,4.87
2018-08-28T18:50:57.675Z,4.30
2018-08-28T18:53:31.961Z,4.37
2018-08-28T18:56:06.314Z,4.70
2018-08-28T18:58:40.610Z,4.73
2018-08-28T19:01:15.045Z,4.40
2018-08-28T19:03:49.383Z,4.47
2018-08-28T19:06:23.697Z,4.47
2018-08-28T19:08:58.282Z,5.07
2018-08-28T19:11:32.415Z,5.00
2018-08-28T19:14:06.756Z,5.37
2018-08-28T19:16:40.914Z,4.63
2018-08-28T19:19:15.274Z,4.60
2018-08-28T19:21:49.597Z,5.07
2018-08-28T19:24:23.894Z,4.40
2018-08-28T19:26:58.218Z,4.80
2018-08-28T19:29:32.593Z,4.70
2018-08-28T19:32:06.979Z,4.67
2018-08-28T19:34:41.134Z,4.80
2018-08-28T19:37:15.436Z,5.23
2018-08-28T19:39:49.793Z,5.67
2018-08-28T19:42:24.042Z,4.80
2018-08-28T19:44:58.334Z,4.90
2018-08-28T19:47:32.693Z,5.63
2018-08-28T19:50:07.090Z,5.50
2018-08-28T19:52:41.418Z,4.47
2018-08-28T19:55:15.657Z,5.60
2018-08-28T19:57:49.945Z,4.77
2018-08-28T20:00:24.343Z,4.97
2018-08-28T20:02:58.744Z,5.07
2018-08-28T20:05:33.009Z,4.83
2018-08-28T20:08:07.350Z,4.63
2018-08-28T20:10:41.642Z,4.53
2018-08-28T20:13:15.994Z,4.67
2018-08-28T20:15:50.228Z,5.30
2018-08-28T20:18:24.660Z,4.70
2018-08-28T20:20:59.006Z,5.40
2018-08-28T20:23:33.386Z,4.60
2018-08-28T20:26:07.862Z,5.30
2018-08-28T20:28:42.301Z,5.60
2018-08-28T20:31:16.742Z,4.97
2018-08-28T20:33:51.053Z,5.00
2018-08-28T20:36:25.309Z,4.40
2018-08-28T20:38:59.582Z,4.57
2018-08-28T20:41:33.858Z,5.23
2018-08-28T20:44:08.125Z,5.00
2018-08-28T20:46:42.567Z,4.90
2018-08-28T20:49:16.862Z,4.70
2018-08-28T20:51:51.342Z,5.10
2018-08-28T20:54:25.657Z,5.53
2018-08-28T20:56:59.877Z,4.87
2018-08-28T20:59:34.186Z,4.63
2018-08-28T21:02:08.443Z,5.00
2018-08-28T21:04:42.652Z,5.40
2018-08-28T21:07:17.017Z,5.03
2018-08-28T21:09:51.301Z,5.43
2018-08-28T21:12:25.575Z,4.50
2018-08-28T21:14:59.726Z,4.50
2018-08-28T21:17:34.012Z,4.60
2018-08-28T21:20:08.830Z,5.10
2018-08-28T21:22:43.052Z,5.07
2018-08-28T21:25:17.673Z,5.43
2018-08-28T21:27:52.001Z,5.23
2018-08-28T21:30:26.265Z,5.30
2018-08-28T21:33:00.682Z,4.90
2018-08-28T21:35:34.991Z,4.50
2018-08-28T21:38:09.266Z,5.00
2018-08-28T21:40:43.527Z,4.97
2018-08-28T21:43:17.893Z,4.53
2018-08-28T21:45:52.162Z,4.90
2018-08-28T21:48:26.426Z,4.57
2018-08-28T21:51:00.738Z,4.67
2018-08-28T21:53:35.271Z,4.53
2018-08-28T21:56:09.682Z,5.20
2018-08-28T21:58:43.898Z,5.07
2018-08-28T22:01:18.219Z,4.87
2018-08-28T22:03:52.387Z,4.83
2018-08-28T22:06:31.938Z,4.60
2018-08-28T22:09:06.497Z,4.77
2018-08-28T22:11:40.669Z,5.03
2018-08-28T22:14:15.061Z,5.20
2018-08-28T22:16:49.330Z,5.90
2018-08-28T22:19:23.624Z,4.67
2018-08-28T22:21:58.077Z,4.93
2018-08-28T22:24:32.623Z,4.90
2018-08-28T22:27:06.811Z,6.00
2018-08-28T22:29:41.102Z,5.40
2018-08-28T22:32:15.373Z,4.83
2018-08-28T22:34:49.679Z,5.43
2018-08-28T22:37:23.955Z,4.97
2018-08-28T22:39:58.335Z,5.17
2018-08-28T22:42:32.638Z,4.70
2018-08-28T22:45:06.954Z,4.87
2018-08-28T22:47:41.219Z,5.17
2018-08-28T22:50:15.602Z,4.97
2018-08-28T22:52:50.044Z,5.10
2018-08-28T22:55:24.283Z,4.80
2018-08-28T22:57:58.583Z,5.00
2018-08-28T23:00:32.955Z,4.53
2018-08-28T23:03:07.286Z,4.97
2018-08-28T23:05:41.708Z,5.00
2018-08-28T23:08:15.975Z,4.67
2018-08-28T23:10:50.291Z,4.63
2018-08-28T23:13:24.587Z,4.90
2018-08-28T23:15:58.734Z,5.03
2018-08-28T23:18:33.101Z,5.20
2018-08-28T23:21:07.529Z,5.20
2018-08-28T23:23:41.818Z,4.70
2018-08-28T23:26:16.151Z,4.73
2018-08-28T23:28:50.371Z,4.80
2018-08-28T23:31:24.846Z,4.90
2018-08-28T23:33:59.157Z,4.63
2018-08-28T23:36:33.462Z,4.90
2018-08-28T23:39:08.144Z,4.67
2018-08-28T23:41:42.454Z,4.83
2018-08-28T23:44:16.762Z,4.47
2018-08-28T23:46:51.063Z,5.33
2018-08-28T23:49:25.254Z,5.00
2018-08-28T23:51:59.589Z,4.83
2018-08-28T23:54:33.951Z,4.83
2018-08-28T23:57:08.354Z,5.00
2018-08-28T23:59:42.666Z,5.23
